Time;durP1;ratioP1;P1;durP2;ratioP2;P2;SDS_P1;SDS_P2;PMS_P1;PMS_P2;Temp;Humidity;BMP_temperature;BMP_pressure;BME280_temperature;BME280_humidity;BME280_pressure;Samples;Min_cycle;Max_cycle;Signal;HPM_P1;HPM_P2
2021/12/29 00:00:56;;;;;;;;;;;;;;;20.35;56.00;99845.59;2099961;28;19919;-45
2021/12/29 00:01:57;;;;;;;;;;;;;;;20.37;55.92;99840.81;2098228;28;20149;-46
2021/12/29 00:03:00;;;;;;;;;;;;;;;20.37;55.93;99840.81;2090228;28;19944;-45
2021/12/29 00:04:00;;;;;;;;;;;;;;;20.38;56.16;99845.25;2093866;28;20393;-45
2021/12/29 00:05:00;;;;;;;;;;;;;;;20.39;55.95;99844.25;2088948;28;19916;-45
2021/12/29 00:06:00;;;;;;;;;;;;;;;20.40;55.89;99851.44;2096036;28;19920;-46
2021/12/29 00:07:01;;;;;;;;;;;;;;;20.41;56.02;99842.22;2093858;28;19918;-45
2021/12/29 00:08:02;;;;;;;;;;;;;;;20.42;55.93;99848.53;2095071;28;19923;-46
2021/12/29 00:09:02;;;;;;;;;;;;;;;20.42;55.79;99846.66;2096887;28;19908;-46
2021/12/29 00:10:03;;;;;;;;;;;;;;;20.42;55.97;99849.38;2093115;28;20014;-49
2021/12/29 00:11:04;;;;;;;;;;;;;;;20.45;55.80;99848.19;2093545;28;19912;-46
2021/12/29 00:12:07;;;;;;;;;;;;;;;20.44;55.95;99847.34;2087581;28;20338;-45
2021/12/29 00:13:07;;;;;;;;;;;;;;;20.44;55.98;99855.56;2091151;28;20015;-46
2021/12/29 00:14:09;;;;;;;;;;;;;;;20.44;55.93;99861.03;2088429;28;20379;-46
2021/12/29 00:15:10;;;;;;;;;;;;;;;20.45;55.85;99853.66;2096451;28;21111;-45
2021/12/29 00:16:10;;;;;;;;;;;;;;;20.44;55.63;99851.97;2089703;28;19917;-44
2021/12/29 00:17:11;;;;;;;;;;;;;;;20.47;55.72;99860.69;2091567;28;20578;-46
2021/12/29 00:18:11;;;;;;;;;;;;;;;20.48;55.68;99865.16;2090226;28;19919;-47
2021/12/29 00:19:12;;;;;;;;;;;;;;;20.47;55.83;99863.44;2091861;28;20224;-47
2021/12/29 00:20:13;;;;;;;;;;;;;;;20.50;55.82;99862.25;2095587;28;19988;-45
2021/12/29 00:21:14;;;;;;;;;;;;;;;20.49;55.69;99861.41;2096818;28;19920;-45
2021/12/29 00:22:14;;;;;;;;;;;;;;;20.49;55.59;99864.13;2092958;28;19916;-45
2021/12/29 00:23:15;;;;;;;;;;;;;;;20.51;55.55;99856.63;2091900;28;20013;-45
2021/12/29 00:24:15;;;;;;;;;;;;;;;20.51;55.59;99859.34;2099426;28;19923;-45
2021/12/29 00:25:16;;;;;;;;;;;;;;;20.52;55.74;99861.06;2091195;28;19942;-45
2021/12/29 00:26:17;;;;;;;;;;;;;;;20.53;55.71;99867.41;2090453;28;19960;-46
2021/12/29 00:27:17;;;;;;;;;;;;;;;20.52;55.43;99858.31;2089556;28;19931;-46
2021/12/29 00:28:18;;;;;;;;;;;;;;;20.53;55.57;99868.28;2089415;28;19920;-45
2021/12/29 00:29:18;;;;;;;;;;;;;;;20.52;55.63;99861.06;2094905;28;19920;-45
2021/12/29 00:30:18;;;;;;;;;;;;;;;20.53;55.72;99867.41;2090811;28;19920;-44
2021/12/29 00:31:19;;;;;;;;;;;;;;;20.53;55.47;99862.78;2095481;28;19916;-45
2021/12/29 00:32:19;;;;;;;;;;;;;;;20.53;55.59;99862.78;2085151;28;19952;-45
2021/12/29 00:33:20;;;;;;;;;;;;;;;20.52;55.73;99861.06;2088597;28;19913;-45
2021/12/29 00:34:20;;;;;;;;;;;;;;;20.52;55.46;99861.06;2090402;28;20265;-46
2021/12/29 00:35:20;;;;;;;;;;;;;;;20.54;55.56;99852.69;2094466;28;20304;-45
2021/12/29 00:36:21;;;;;;;;;;;;;;;20.52;55.70;99860.22;2090257;28;20586;-45
2021/12/29 00:37:21;;;;;;;;;;;;;;;20.54;55.62;99858.16;2090931;28;19908;-44
2021/12/29 00:38:23;;;;;;;;;;;;;;;20.54;55.59;99869.13;2090564;28;19938;-45
2021/12/29 00:39:23;;;;;;;;;;;;;;;20.54;55.69;99856.28;2092267;28;20419;-45
2021/12/29 00:40:24;;;;;;;;;;;;;;;20.53;55.50;99854.56;2094781;28;19912;-45
2021/12/29 00:41:24;;;;;;;;;;;;;;;20.53;55.48;99856.47;2089964;28;20151;-47
2021/12/29 00:42:24;;;;;;;;;;;;;;;20.52;55.59;99861.06;2094628;28;20056;-45
2021/12/29 00:43:24;;;;;;;;;;;;;;;20.52;55.43;99847.38;2092759;28;19916;-46
2021/12/29 00:44:25;;;;;;;;;;;;;;;20.52;55.74;99855.59;2094550;28;19996;-45
2021/12/29 00:45:26;;;;;;;;;;;;;;;20.53;55.50;99861.94;2089852;28;20169;-45
2021/12/29 00:46:26;;;;;;;;;;;;;;;20.53;55.45;99853.72;2098625;28;19908;-45
2021/12/29 00:47:30;;;;;;;;;;;;;;;20.50;55.46;99852.16;2093799;28;20570;-45
2021/12/29 00:48:36;;;;;;;;;;;;;;;20.49;55.57;99850.44;2092011;28;20004;-47
2021/12/29 00:49:37;;;;;;;;;;;;;;;20.50;55.48;99857.63;2082411;28;20057;-44
2021/12/29 00:50:39;;;;;;;;;;;;;;;20.50;55.51;99854.88;2086082;28;19919;-45
2021/12/29 00:51:39;;;;;;;;;;;;;;;20.50;55.72;99849.41;2096159;28;20238;-48
2021/12/29 00:52:39;;;;;;;;;;;;;;;20.49;55.60;99850.44;2092993;28;19916;-45
2021/12/29 00:53:40;;;;;;;;;;;;;;;20.49;55.53;99850.44;2096393;28;20234;-46
2021/12/29 00:54:42;;;;;;;;;;;;;;;20.52;55.52;99861.06;2080077;28;19932;-45
2021/12/29 00:55:42;;;;;;;;;;;;;;;20.50;55.64;99857.63;2087075;28;20328;-45
2021/12/29 00:56:44;;;;;;;;;;;;;;;20.49;55.65;99855.91;2095574;28;19924;-45
2021/12/29 00:57:44;;;;;;;;;;;;;;;20.44;55.61;99858.28;2100779;28;20310;-45
2021/12/29 00:58:44;;;;;;;;;;;;;;;20.42;55.77;99860.34;2095601;28;19916;-47
2021/12/29 00:59:45;;;;;;;;;;;;;;;20.39;55.88;99854.34;2093496;28;19916;-45
2021/12/29 01:00:45;;;;;;;;;;;;;;;20.37;55.78;99862.72;2090834;28;20292;-45
2021/12/29 01:01:48;;;;;;;;;;;;;;;20.32;55.80;99849.50;2090270;28;19916;-44
2021/12/29 01:02:49;;;;;;;;;;;;;;;20.31;55.98;99852.44;2101248;28;19959;-45
2021/12/29 01:03:49;;;;;;;;;;;;;;;20.30;55.92;99856.16;2087388;28;19928;-45
2021/12/29 01:04:50;;;;;;;;;;;;;;;20.31;55.82;99866.13;2087716;28;19935;-45
2021/12/29 01:05:50;;;;;;;;;;;;;;;20.30;56.06;99867.13;2089978;28;19913;-45
2021/12/29 01:06:50;;;;;;;;;;;;;;;20.28;55.93;99858.22;2085842;28;20189;-44
2021/12/29 01:07:51;;;;;;;;;;;;;;;20.27;56.05;99867.47;2092369;28;20125;-46
2021/12/29 01:08:51;;;;;;;;;;;;;;;20.26;55.95;99861.13;2090055;28;19924;-46
2021/12/29 01:09:51;;;;;;;;;;;;;;;20.25;56.04;99858.53;2091803;28;19916;-45
2021/12/29 01:10:52;;;;;;;;;;;;;;;20.25;56.09;99874.97;2092066;28;19924;-47
2021/12/29 01:11:55;;;;;;;;;;;;;;;20.24;56.14;99867.78;2092494;28;19916;-44
2021/12/29 01:13:01;;;;;;;;;;;;;;;20.23;56.01;99868.78;2092198;28;20833;-45
2021/12/29 01:14:01;;;;;;;;;;;;;;;20.22;56.09;99865.19;2093726;28;19916;-46
2021/12/29 01:15:03;;;;;;;;;;;;;;;20.22;56.19;99864.34;2093528;28;19908;-45
2021/12/29 01:17:07;;;;;;;;;;;;;;;20.19;55.96;99864.69;2081541;28;19922;-44
2021/12/29 01:18:07;;;;;;;;;;;;;;;20.18;56.24;99868.44;2092719;28;20762;-47
2021/12/29 01:19:18;;;;;;;;;;;;;;;20.18;56.23;99868.44;2090081;28;20281;-45
2021/12/29 01:20:19;;;;;;;;;;;;;;;20.18;56.17;99868.44;2102442;28;19926;-45
2021/12/29 01:21:20;;;;;;;;;;;;;;;20.18;56.10;99868.44;2090812;28;19969;-44
2021/12/29 01:22:20;;;;;;;;;;;;;;;20.16;56.19;99870.47;2091904;28;20868;-45
2021/12/29 01:23:21;;;;;;;;;;;;;;;20.15;56.14;99874.22;2097851;28;19916;-45
2021/12/29 01:24:22;;;;;;;;;;;;;;;20.16;56.33;99875.94;2095675;28;19916;-46
2021/12/29 01:25:22;;;;;;;;;;;;;;;20.15;56.33;99869.59;2093542;28;19916;-45
2021/12/29 01:26:23;;;;;;;;;;;;;;;20.14;56.14;99873.38;2093745;28;20347;-45
2021/12/29 01:27:23;;;;;;;;;;;;;;;20.15;56.22;99871.50;2094532;28;20230;-46
2021/12/29 01:28:23;;;;;;;;;;;;;;;20.15;56.10;99868.75;2092368;28;20699;-46
2021/12/29 01:29:28;;;;;;;;;;;;;;;20.15;56.31;99874.22;2091977;28;20140;-46
2021/12/29 01:30:29;;;;;;;;;;;;;;;20.15;56.29;99879.72;2091757;28;20314;-45
2021/12/29 01:31:29;;;;;;;;;;;;;;;20.13;56.23;99877.97;2093186;28;19966;-45
2021/12/29 01:32:29;;;;;;;;;;;;;;;20.13;56.17;99875.22;2093982;28;20322;-45
2021/12/29 01:33:29;;;;;;;;;;;;;;;20.14;56.37;99867.91;2089271;28;19916;-45
2021/12/29 01:34:30;;;;;;;;;;;;;;;20.13;56.31;99867.03;2093297;28;20673;-45
2021/12/29 01:35:30;;;;;;;;;;;;;;;20.13;56.25;99871.66;2091187;28;19986;-48
2021/12/29 01:36:31;;;;;;;;;;;;;;;20.12;56.22;99870.78;2090455;28;19922;-45
2021/12/29 01:37:32;;;;;;;;;;;;;;;20.12;56.33;99873.53;2094519;28;19908;-45
2021/12/29 01:38:32;;;;;;;;;;;;;;;20.12;56.35;99868.06;2084911;28;19932;-48
2021/12/29 01:39:32;;;;;;;;;;;;;;;20.11;56.23;99863.63;2081571;28;20453;-45
2021/12/29 01:40:33;;;;;;;;;;;;;;;20.10;56.38;99867.34;2086295;28;19962;-46
2021/12/29 01:41:34;;;;;;;;;;;;;;;20.11;56.34;99863.63;2093659;28;20005;-45
2021/12/29 01:42:34;;;;;;;;;;;;;;;20.11;56.28;99873.69;2092613;28;19921;-45
2021/12/29 01:43:35;;;;;;;;;;;;;;;20.10;56.32;99867.34;2093946;28;20424;-48
2021/12/29 01:44:36;;;;;;;;;;;;;;;20.11;56.42;99862.72;2085628;28;19912;-44
2021/12/29 01:45:36;;;;;;;;;;;;;;;20.11;56.44;99866.34;2089267;28;19920;-43
2021/12/29 01:46:39;;;;;;;;;;;;;;;20.11;56.29;99868.22;2092981;28;20393;-45
2021/12/29 01:47:39;;;;;;;;;;;;;;;20.11;56.48;99869.09;2093664;28;20019;-46
2021/12/29 01:48:40;;;;;;;;;;;;;;;20.11;56.40;99869.09;2095615;28;20494;-45
2021/12/29 01:49:41;;;;;;;;;;;;;;;20.11;56.37;99869.09;2092658;28;20595;-46
2021/12/29 01:50:44;;;;;;;;;;;;;;;20.11;56.30;99873.69;2088316;28;19912;-46
2021/12/29 01:51:50;;;;;;;;;;;;;;;20.11;56.41;99874.56;2091607;28;20003;-45
2021/12/29 01:52:53;;;;;;;;;;;;;;;20.10;56.42;99867.34;2092392;28;19908;-44
2021/12/29 01:55:14;;;;;;;;;;;;;;;20.10;56.25;99872.81;2098519;28;19923;-45
2021/12/29 01:56:15;;;;;;;;;;;;;;;20.11;56.47;99880.03;2090169;28;19920;-46
2021/12/29 01:57:15;;;;;;;;;;;;;;;20.12;56.37;99886.38;2095002;28;20051;-45
2021/12/29 01:58:16;;;;;;;;;;;;;;;20.10;56.47;99878.31;2095601;28;20387;-45
2021/12/29 01:59:16;;;;;;;;;;;;;;;20.12;56.46;99892.69;2097433;28;19916;-45
2021/12/29 02:00:18;;;;;;;;;;;;;;;20.13;56.47;99888.06;2091524;28;19916;-44
2021/12/29 02:01:19;;;;;;;;;;;;;;;20.12;56.27;99881.75;2088555;28;19928;-45
2021/12/29 02:02:19;;;;;;;;;;;;;;;20.12;56.36;99892.69;2099809;28;20179;-45
2021/12/29 02:03:20;;;;;;;;;;;;;;;20.13;56.22;99886.19;2092297;28;19943;-45
2021/12/29 02:04:20;;;;;;;;;;;;;;;20.13;56.41;99888.91;2086704;28;19919;-45
2021/12/29 02:05:20;;;;;;;;;;;;;;;20.13;56.35;99886.19;2093540;28;19904;-44
2021/12/29 02:06:21;;;;;;;;;;;;;;;20.15;56.30;99890.66;2089897;28;20157;-46
2021/12/29 02:07:22;;;;;;;;;;;;;;;20.16;56.30;99893.19;2088962;28;20242;-45
2021/12/29 02:08:23;;;;;;;;;;;;;;;20.15;56.20;99891.50;2087825;28;20445;-45
2021/12/29 02:09:24;;;;;;;;;;;;;;;20.16;56.32;99898.69;2088280;28;20561;-47
2021/12/29 02:10:24;;;;;;;;;;;;;;;20.19;56.07;99897.53;2087141;28;19917;-46
2021/12/29 02:11:29;;;;;;;;;;;;;;;20.20;56.17;99904.72;2090957;28;19916;-46
2021/12/29 02:12:30;;;;;;;;;;;;;;;20.20;56.11;99904.72;2094916;28;19916;-51
2021/12/29 02:13:30;;;;;;;;;;;;;;;20.21;56.07;99898.19;2091885;28;19916;-44
2021/12/29 02:14:31;;;;;;;;;;;;;;;20.24;56.15;99900.63;2087912;28;19920;-45
2021/12/29 02:15:31;;;;;;;;;;;;;;;20.24;56.07;99900.63;2088053;28;20062;-45
2021/12/29 02:16:31;;;;;;;;;;;;;;;20.28;56.12;99904.75;2091882;28;19938;-44
2021/12/29 02:17:32;;;;;;;;;;;;;;;20.29;55.82;99909.22;2087581;28;20136;-45
2021/12/29 02:18:34;;;;;;;;;;;;;;;20.32;55.80;99903.41;2081857;28;19956;-44
2021/12/29 02:19:42;;;;;;;;;;;;;;;20.34;55.89;99912.31;2090911;28;19942;-45
2021/12/29 02:20:46;;;;;;;;;;;;;;;20.36;55.78;99904.81;2082258;28;20265;-45
2021/12/29 02:21:51;;;;;;;;;;;;;;;20.39;55.71;99911.84;2088226;28;19963;-45
2021/12/29 02:23:12;;;;;;;;;;;;;;;20.41;55.58;99909.78;2083654;28;19952;-45
2021/12/29 02:26:19;;;;;;;;;;;;;;;20.46;55.46;99900.06;2093751;28;19967;-45
2021/12/29 02:27:19;;;;;;;;;;;;;;;20.49;55.57;99902.47;2083424;28;19917;-46
2021/12/29 02:28:34;;;;;;;;;;;;;;;20.51;55.42;99903.16;2086664;28;20007;-46
2021/12/29 02:29:34;;;;;;;;;;;;;;;20.53;55.31;99906.59;2096225;28;19916;-45
2021/12/29 02:30:35;;;;;;;;;;;;;;;20.55;55.44;99906.44;2089195;28;19916;-45
2021/12/29 02:31:36;;;;;;;;;;;;;;;20.57;55.30;99907.16;2092897;28;20349;-45
2021/12/29 02:32:37;;;;;;;;;;;;;;;20.57;55.30;99900.81;2093173;28;20484;-45
2021/12/29 02:33:37;;;;;;;;;;;;;;;20.61;55.26;99902.22;2091617;28;19920;-44
2021/12/29 02:34:37;;;;;;;;;;;;;;;20.63;55.24;99902.88;2092104;28;20140;-45
2021/12/29 02:35:37;;;;;;;;;;;;;;;20.65;55.11;99909.06;2092998;28;20366;-45
2021/12/29 02:36:43;;;;;;;;;;;;;;;20.66;54.98;99908.06;2094090;28;20003;-46
2021/12/29 02:37:44;;;;;;;;;;;;;;;20.67;55.17;99901.53;2090998;28;19927;-45
2021/12/29 02:38:49;;;;;;;;;;;;;;;20.69;55.20;99896.75;2094384;28;19947;-45
2021/12/29 02:39:51;;;;;;;;;;;;;;;20.71;55.03;99908.41;2092685;28;19947;-48
2021/12/29 02:40:53;;;;;;;;;;;;;;;20.73;55.19;99900.91;2090634;28;20002;-45
2021/12/29 02:41:54;;;;;;;;;;;;;;;20.75;55.05;99901.59;2092913;28;19916;-45
2021/12/29 02:42:54;;;;;;;;;;;;;;;20.77;55.03;99902.25;2090527;28;19931;-45
2021/12/29 02:44:00;;;;;;;;;;;;;;;20.77;55.02;99896.78;2089860;28;21317;-45
2021/12/29 02:45:03;;;;;;;;;;;;;;;20.79;54.84;99902.97;2093370;28;20733;-45
2021/12/29 02:46:06;;;;;;;;;;;;;;;20.79;54.87;99908.44;2088566;28;20022;-45
2021/12/29 02:47:06;;;;;;;;;;;;;;;20.81;54.88;99898.19;2096580;28;20721;-45
2021/12/29 02:48:06;;;;;;;;;;;;;;;20.82;54.90;99905.38;2091598;28;19956;-45
2021/12/29 02:49:06;;;;;;;;;;;;;;;20.83;54.63;99909.84;2092461;28;19965;-46
2021/12/29 02:50:07;;;;;;;;;;;;;;;20.82;55.08;99894.41;2089412;28;20471;-45
2021/12/29 02:51:08;;;;;;;;;;;;;;;20.83;55.04;99909.84;2093792;28;19912;-45
2021/12/29 02:52:10;;;;;;;;;;;;;;;20.83;54.64;99901.63;2092836;28;20341;-45
2021/12/29 02:53:12;;;;;;;;;;;;;;;20.83;54.92;99901.63;2087151;28;19952;-45
2021/12/29 02:54:12;;;;;;;;;;;;;;;20.84;54.73;99903.31;2092371;28;20293;-45
2021/12/29 02:55:13;;;;;;;;;;;;;;;20.84;54.92;99905.22;2091593;28;19920;-45
2021/12/29 02:56:13;;;;;;;;;;;;;;;20.86;54.89;99905.91;2090555;28;19916;-45
2021/12/29 02:57:13;;;;;;;;;;;;;;;20.86;54.87;99911.38;2088405;28;19916;-46
2021/12/29 02:58:13;;;;;;;;;;;;;;;20.86;54.66;99905.91;2085453;28;19943;-45
2021/12/29 02:59:15;;;;;;;;;;;;;;;20.85;54.96;99909.66;2093719;28;19912;-48
2021/12/29 03:00:15;;;;;;;;;;;;;;;20.86;54.86;99906.75;2091120;28;19916;-46
2021/12/29 03:01:16;;;;;;;;;;;;;;;20.86;54.92;99903.16;2093226;28;19916;-45
2021/12/29 03:02:18;;;;;;;;;;;;;;;20.86;54.91;99906.75;2090795;28;19916;-45
2021/12/29 03:03:27;;;;;;;;;;;;;;;20.87;54.60;99908.50;2089515;28;19926;-45
2021/12/29 03:04:27;;;;;;;;;;;;;;;20.85;54.90;99905.06;2085885;28;19952;-45
2021/12/29 03:05:28;;;;;;;;;;;;;;;20.85;54.63;99905.06;2088415;28;19917;-45
2021/12/29 03:06:28;;;;;;;;;;;;;;;20.86;54.68;99905.91;2093282;28;19969;-45
2021/12/29 03:07:28;;;;;;;;;;;;;;;20.86;54.52;99906.75;2092372;28;20017;-46
2021/12/29 03:08:29;;;;;;;;;;;;;;;20.87;54.95;99910.34;2091693;28;20215;-46
2021/12/29 03:09:29;;;;;;;;;;;;;;;20.87;54.64;99918.56;2093815;28;20367;-45
2021/12/29 03:10:29;;;;;;;;;;;;;;;20.85;54.88;99913.28;2089667;28;19912;-46
2021/12/29 03:11:30;;;;;;;;;;;;;;;20.85;54.73;99926.97;2093970;28;20613;-45
2021/12/29 03:12:30;;;;;;;;;;;;;;;20.84;54.91;99914.28;2080148;28;20067;-45
2021/12/29 03:13:32;;;;;;;;;;;;;;;20.86;54.86;99928.66;2085231;28;19918;-45
2021/12/29 03:14:33;;;;;;;;;;;;;;;20.85;54.67;99916.00;2087707;28;19954;-45
2021/12/29 03:15:33;;;;;;;;;;;;;;;20.85;54.96;99913.28;2088187;28;20358;-45
2021/12/29 03:16:34;;;;;;;;;;;;;;;20.84;54.69;99919.75;2089469;28;19923;-45
2021/12/29 03:17:34;;;;;;;;;;;;;;;20.85;54.90;99920.59;2082264;28;20466;-46
2021/12/29 03:18:34;;;;;;;;;;;;;;;20.85;54.70;99921.50;2083684;28;19958;-45
2021/12/29 03:19:35;;;;;;;;;;;;;;;20.84;54.90;99925.25;2090698;28;19904;-46
2021/12/29 03:20:35;;;;;;;;;;;;;;;20.85;54.97;99917.88;2095540;28;19954;-45
2021/12/29 03:21:35;;;;;;;;;;;;;;;20.85;54.81;99923.34;2097073;28;19908;-45
2021/12/29 03:22:36;;;;;;;;;;;;;;;20.84;55.04;99914.28;2092184;28;19920;-45
2021/12/29 03:23:36;;;;;;;;;;;;;;;20.83;55.19;99912.56;2093711;28;19920;-45
2021/12/29 03:24:37;;;;;;;;;;;;;;;20.84;54.79;99913.44;2091950;28;19917;-45
2021/12/29 03:25:37;;;;;;;;;;;;;;;20.83;54.99;99918.06;2083216;28;20372;-45
2021/12/29 03:26:38;;;;;;;;;;;;;;;20.84;55.05;99922.50;2091111;28;19909;-45
2021/12/29 03:27:38;;;;;;;;;;;;;;;20.84;54.73;99919.75;2093753;28;20151;-45
2021/12/29 03:28:39;;;;;;;;;;;;;;;20.84;54.98;99919.75;2093458;28;20463;-45
2021/12/29 03:29:39;;;;;;;;;;;;;;;20.83;54.96;99912.56;2092593;28;20279;-45
2021/12/29 03:30:41;;;;;;;;;;;;;;;20.84;55.15;99914.28;2085336;28;19920;-45
2021/12/29 03:31:43;;;;;;;;;;;;;;;20.84;55.04;99914.28;2093591;28;20658;-46
2021/12/29 03:32:50;;;;;;;;;;;;;;;20.83;55.13;99912.56;2090997;28;19958;-45
2021/12/29 03:33:51;;;;;;;;;;;;;;;20.84;55.20;99908.81;2091173;28;19916;-45
2021/12/29 03:34:51;;;;;;;;;;;;;;;20.83;54.83;99909.00;2089626;28;20334;-45
2021/12/29 03:35:56;;;;;;;;;;;;;;;20.82;55.07;99905.38;2084090;28;19923;-45
2021/12/29 03:36:56;;;;;;;;;;;;;;;20.82;55.13;99910.84;2080324;28;19927;-45
2021/12/29 03:37:57;;;;;;;;;;;;;;;20.82;55.17;99913.59;2088698;28;20280;-45
2021/12/29 03:38:57;;;;;;;;;;;;;;;20.83;54.91;99911.72;2087277;28;19915;-45
2021/12/29 03:39:58;;;;;;;;;;;;;;;20.82;55.12;99912.72;2088492;28;19908;-48
2021/12/29 03:40:59;;;;;;;;;;;;;;;20.81;55.13;99914.63;2092019;28;20111;-45
2021/12/29 03:41:59;;;;;;;;;;;;;;;20.81;55.18;99902.81;2095542;28;20518;-45
2021/12/29 03:42:59;;;;;;;;;;;;;;;20.81;55.09;99906.41;2094901;28;20544;-45
2021/12/29 03:44:01;;;;;;;;;;;;;;;20.81;54.97;99903.66;2092437;28;20664;-45
2021/12/29 03:45:01;;;;;;;;;;;;;;;20.80;55.14;99901.97;2093334;28;19916;-46
2021/12/29 03:46:03;;;;;;;;;;;;;;;20.81;55.10;99900.06;2091168;28;20357;-45
2021/12/29 03:47:04;;;;;;;;;;;;;;;20.79;55.06;99900.22;2099806;28;19991;-46
2021/12/29 03:48:04;;;;;;;;;;;;;;;20.80;55.26;99896.47;2091546;28;19958;-46
2021/12/29 03:49:05;;;;;;;;;;;;;;;20.79;55.08;99897.47;2095875;28;19912;-45
2021/12/29 03:50:05;;;;;;;;;;;;;;;20.79;55.36;99900.22;2094326;28;20336;-48
2021/12/29 03:51:06;;;;;;;;;;;;;;;20.78;55.12;99887.56;2089874;28;19916;-44
2021/12/29 03:52:07;;;;;;;;;;;;;;;20.77;55.28;99891.31;2087837;28;19930;-44
2021/12/29 03:53:08;;;;;;;;;;;;;;;20.77;55.28;99885.81;2092092;28;19912;-45
2021/12/29 03:54:08;;;;;;;;;;;;;;;20.77;55.38;99891.31;2093157;28;20489;-46
2021/12/29 03:55:09;;;;;;;;;;;;;;;20.77;55.24;99891.31;2090208;28;20547;-45
2021/12/29 03:56:09;;;;;;;;;;;;;;;20.77;55.48;99894.03;2097251;28;20531;-46
2021/12/29 03:57:10;;;;;;;;;;;;;;;20.76;55.47;99895.09;2095113;28;20881;-45
2021/12/29 03:58:11;;;;;;;;;;;;;;;20.75;55.36;99893.38;2091117;28;20389;-45
2021/12/29 03:59:11;;;;;;;;;;;;;;;20.75;55.51;99887.91;2095319;28;20352;-45
2021/12/29 04:00:13;;;;;;;;;;;;;;;20.74;55.47;99892.50;2090017;28;19924;-45
2021/12/29 04:01:15;;;;;;;;;;;;;;;20.75;55.38;99887.91;2099606;28;19916;-45
2021/12/29 04:02:15;;;;;;;;;;;;;;;20.75;55.12;99893.38;2093189;28;20246;-48
2021/12/29 04:03:16;;;;;;;;;;;;;;;20.74;55.23;99899.88;2098541;28;19916;-45
2021/12/29 04:04:16;;;;;;;;;;;;;;;20.74;55.39;99895.25;2094098;28;19920;-45
2021/12/29 04:05:19;;;;;;;;;;;;;;;20.74;55.35;99902.59;2098491;28;19922;-45
2021/12/29 04:06:21;;;;;;;;;;;;;;;20.73;55.22;99893.53;2093627;28;19927;-45
2021/12/29 04:07:21;;;;;;;;;;;;;;;20.74;55.46;99897.13;2102489;28;20351;-45
2021/12/29 04:08:21;;;;;;;;;;;;;;;20.72;55.50;99889.06;2093217;28;19916;-46
2021/12/29 04:09:22;;;;;;;;;;;;;;;20.73;55.31;99889.94;2094503;28;20301;-45
2021/12/29 04:10:23;;;;;;;;;;;;;;;20.72;55.34;99888.22;2087383;28;20196;-46
2021/12/29 04:11:23;;;;;;;;;;;;;;;20.72;55.40;99886.31;2094180;28;19937;-46
2021/12/29 04:12:24;;;;;;;;;;;;;;;20.72;55.46;99889.06;2090703;28;22992;-46
2021/12/29 04:13:24;;;;;;;;;;;;;;;20.72;55.33;99882.72;2089216;28;19916;-46
2021/12/29 04:14:26;;;;;;;;;;;;;;;20.73;55.60;99881.72;2092708;28;20256;-45
2021/12/29 04:15:27;;;;;;;;;;;;;;;20.71;55.61;99887.38;2098864;28;20388;-45
2021/12/29 04:16:30;;;;;;;;;;;;;;;20.72;55.56;99882.72;2090435;28;20256;-44
2021/12/29 04:17:36;;;;;;;;;;;;;;;20.72;55.48;99888.22;2092363;28;20524;-44
2021/12/29 04:18:45;;;;;;;;;;;;;;;20.71;55.61;99881.88;2087276;28;19997;-44
2021/12/29 04:21:04;;;;;;;;;;;;;;;20.71;55.46;99889.25;2094641;28;19953;-45
2021/12/29 04:22:04;;;;;;;;;;;;;;;20.69;55.39;99881.19;2088705;28;19912;-43
2021/12/29 04:23:07;;;;;;;;;;;;;;;20.70;55.66;99882.91;2095463;28;19908;-46
2021/12/29 04:24:08;;;;;;;;;;;;;;;20.70;55.63;99887.50;2092245;28;20421;-44
2021/12/29 04:25:08;;;;;;;;;;;;;;;20.70;55.51;99884.78;2093740;28;19925;-45
2021/12/29 04:26:09;;;;;;;;;;;;;;;20.69;55.53;99883.06;2086302;28;19920;-45
2021/12/29 04:27:09;;;;;;;;;;;;;;;20.69;55.68;99883.91;2088061;28;20381;-44
2021/12/29 04:28:14;;;;;;;;;;;;;;;20.69;55.42;99885.81;2086221;28;20285;-45
2021/12/29 04:29:14;;;;;;;;;;;;;;;20.68;55.54;99884.09;2089599;28;20010;-45
2021/12/29 04:30:14;;;;;;;;;;;;;;;20.68;55.65;99886.84;2093668;28;20323;-45
2021/12/29 04:31:15;;;;;;;;;;;;;;;20.68;55.69;99884.97;2086665;28;20548;-46
2021/12/29 04:32:15;;;;;;;;;;;;;;;20.68;55.72;99893.19;2092576;28;19915;-45
2021/12/29 04:33:16;;;;;;;;;;;;;;;20.67;55.69;99885.97;2086073;28;20351;-46
2021/12/29 04:34:16;;;;;;;;;;;;;;;20.68;55.66;99886.84;2089757;28;19912;-45
2021/12/29 04:35:17;;;;;;;;;;;;;;;20.68;55.69;99898.66;2089693;28;19923;-45
2021/12/29 04:36:23;;;;;;;;;;;;;;;20.68;55.60;99889.59;2092604;28;20264;-45
2021/12/29 04:37:24;;;;;;;;;;;;;;;20.68;55.61;99889.59;2094217;28;19920;-45
2021/12/29 04:38:25;;;;;;;;;;;;;;;20.68;55.53;99886.84;2091171;28;19954;-45
2021/12/29 04:39:26;;;;;;;;;;;;;;;20.68;55.62;99892.31;2093186;28;20277;-45
2021/12/29 04:40:26;;;;;;;;;;;;;;;20.68;55.66;99895.06;2094768;28;19916;-45
2021/12/29 04:41:27;;;;;;;;;;;;;;;20.68;55.50;99892.31;2090102;28;19913;-49
2021/12/29 04:42:27;;;;;;;;;;;;;;;20.68;55.70;99900.53;2093200;28;19928;-47
2021/12/29 04:43:27;;;;;;;;;;;;;;;20.68;55.67;99897.81;2093919;28;20077;-48
2021/12/29 04:44:28;;;;;;;;;;;;;;;20.67;55.66;99896.06;2101142;28;20017;-47
2021/12/29 04:45:28;;;;;;;;;;;;;;;20.67;55.57;99896.06;2089964;28;19916;-45
2021/12/29 04:46:36;;;;;;;;;;;;;;;20.65;55.69;99896.25;2092980;28;19923;-45
2021/12/29 04:47:40;;;;;;;;;;;;;;;20.67;55.58;99899.66;2092191;28;20377;-45
2021/12/29 04:48:47;;;;;;;;;;;;;;;20.68;55.54;99900.53;2090032;28;20019;-45
2021/12/29 04:49:48;;;;;;;;;;;;;;;20.66;55.78;99899.84;2094205;28;19951;-45
2021/12/29 04:51:04;;;;;;;;;;;;;;;20.66;55.66;99899.84;2088642;28;19962;-45
2021/12/29 04:52:04;;;;;;;;;;;;;;;20.67;55.70;99896.06;2089972;28;19962;-45
2021/12/29 04:53:05;;;;;;;;;;;;;;;20.66;55.55;99899.84;2089764;28;19951;-48
2021/12/29 04:54:07;;;;;;;;;;;;;;;20.66;55.71;99891.63;2094466;28;19964;-46
2021/12/29 04:55:07;;;;;;;;;;;;;;;20.65;55.86;99892.63;2098116;28;19923;-45
2021/12/29 04:56:08;;;;;;;;;;;;;;;20.65;55.59;99898.09;2090142;28;19944;-45
2021/12/29 04:57:09;;;;;;;;;;;;;;;20.64;55.72;99899.16;2100026;28;20313;-45
2021/12/29 04:58:10;;;;;;;;;;;;;;;20.64;55.70;99899.16;2090523;28;19923;-45
2021/12/29 04:59:11;;;;;;;;;;;;;;;20.63;55.66;99892.81;2094911;28;19922;-45
2021/12/29 05:00:11;;;;;;;;;;;;;;;20.64;55.79;99902.72;2091736;28;19907;-45
2021/12/29 05:01:12;;;;;;;;;;;;;;;20.62;55.73;99903.91;2093228;28;19970;-45
2021/12/29 05:02:12;;;;;;;;;;;;;;;20.63;55.89;99902.88;2092463;28;20308;-45
2021/12/29 05:03:13;;;;;;;;;;;;;;;20.63;55.92;99905.63;2089305;28;20019;-45
2021/12/29 05:04:20;;;;;;;;;;;;;;;20.63;55.95;99905.63;2090316;28;19920;-45
2021/12/29 05:08:24;;;;;;;;;;;;;;;20.62;55.86;99909.41;2094134;28;19915;-46
2021/12/29 05:09:19;;;;;;;;;;;;;;;20.61;56.04;99908.56;2087235;28;19916;-44
2021/12/29 05:10:20;;;;;;;;;;;;;;;20.61;56.06;99913.19;2090583;28;19920;-45
2021/12/29 05:11:20;;;;;;;;;;;;;;;20.60;55.96;99914.19;2091039;28;19912;-45
2021/12/29 05:12:20;;;;;;;;;;;;;;;20.61;55.85;99913.19;2088502;28;20439;-46
2021/12/29 05:13:21;;;;;;;;;;;;;;;20.60;55.95;99917.78;2092775;28;19912;-45
2021/12/29 05:14:21;;;;;;;;;;;;;;;20.60;56.05;99916.91;2086978;28;19916;-47
2021/12/29 05:15:21;;;;;;;;;;;;;;;20.59;55.94;99915.22;2090018;28;20107;-46
2021/12/29 05:16:27;;;;;;;;;;;;;;;20.59;55.89;99912.47;2088793;28;19946;-45
2021/12/29 05:17:28;;;;;;;;;;;;;;;20.60;56.06;99922.41;2089902;28;19917;-45
2021/12/29 05:18:29;;;;;;;;;;;;;;;20.59;56.05;99921.53;2096776;28;19916;-44
2021/12/29 05:19:29;;;;;;;;;;;;;;;20.59;55.86;99926.16;2085882;28;19965;-45
2021/12/29 05:20:30;;;;;;;;;;;;;;;20.59;56.04;99920.69;2096234;28;20463;-44
2021/12/29 05:21:30;;;;;;;;;;;;;;;20.58;55.91;99930.78;2092830;28;19923;-45
2021/12/29 05:22:31;;;;;;;;;;;;;;;20.58;55.90;99927.16;2094333;28;20389;-45
2021/12/29 05:23:31;;;;;;;;;;;;;;;20.57;55.99;99925.47;2097713;28;20351;-46
2021/12/29 05:24:32;;;;;;;;;;;;;;;20.58;55.83;99929.91;2093721;28;20237;-45
2021/12/29 05:25:32;;;;;;;;;;;;;;;20.56;55.84;99930.09;2092755;28;20687;-45
2021/12/29 05:26:33;;;;;;;;;;;;;;;20.55;55.85;99926.50;2092118;28;19965;-44
2021/12/29 05:27:33;;;;;;;;;;;;;;;20.54;56.11;99919.25;2092019;28;19930;-46
2021/12/29 05:28:33;;;;;;;;;;;;;;;20.56;55.94;99921.88;2092069;28;19959;-45